createdAt,value
2023-04-03T00:01:28.123Z,99841.36
2023-04-03T00:04:16.534Z,99840.04
2023-04-03T00:06:49.214Z,99839.47
2023-04-03T00:09:20.383Z,99841.82
2023-04-03T00:11:48.451Z,99836.41
2023-04-03T00:14:16.717Z,99831.66
2023-04-03T00:16:56.270Z,99817.89
2023-04-03T00:19:24.795Z,99816.55
2023-04-03T00:21:54.549Z,99812.52
2023-04-03T00:24:23.357Z,99813.11
2023-04-03T00:26:59.757Z,99803.77
2023-04-03T00:29:28.976Z,99796.44
2023-04-03T00:31:57.165Z,99805.47
2023-04-03T00:34:26.102Z,99800.70
2023-04-03T00:36:55.543Z,99799.66
2023-04-03T00:39:23.889Z,99800.45
2023-04-03T00:41:57.145Z,99801.46
2023-04-03T00:44:34.508Z,99796.10
2023-04-03T00:47:03.240Z,99797.16
2023-04-03T00:49:32.195Z,99796.14
2023-04-03T00:52:00.570Z,99795.58
2023-04-03T00:54:29.650Z,99802.79
2023-04-03T00:56:58.639Z,99801.81
2023-04-03T00:59:32.516Z,99798.19
2023-04-03T01:02:01.798Z,99796.22
2023-04-03T01:04:32.399Z,99793.98
2023-04-03T01:07:06.291Z,99791.03
2023-04-03T01:09:34.830Z,99793.77
2023-04-03T01:12:17.530Z,99798.42
2023-04-03T01:14:47.450Z,99797.12
2023-04-03T01:17:37.765Z,99796.33
2023-04-03T01:20:34.182Z,99788.77
2023-04-03T01:23:11.139Z,99780.02
2023-04-03T01:25:45.541Z,99776.19
2023-04-03T01:28:28.212Z,99775.30
2023-04-03T01:31:02.290Z,99779.05
2023-04-03T01:33:32.853Z,99770.21
2023-04-03T01:36:01.298Z,99765.30
2023-04-03T01:38:30.456Z,99765.46
2023-04-03T01:42:59.658Z,99751.77
2023-04-03T01:45:28.188Z,99749.17
2023-04-03T01:47:56.524Z,99748.48
2023-04-03T01:50:25.949Z,99745.88
2023-04-03T01:52:54.654Z,99744.36
2023-04-03T01:55:22.854Z,99739.79
2023-04-03T01:57:51.581Z,99740.23
2023-04-03T02:00:19.983Z,99737.63
2023-04-03T02:02:49.067Z,99744.46
2023-04-03T02:05:17.389Z,99755.75
2023-04-03T02:07:45.698Z,99753.58
2023-04-03T02:10:14.334Z,99747.84
2023-04-03T02:12:44.061Z,99748.96
2023-04-03T02:15:12.174Z,99748.21
2023-04-03T02:17:42.256Z,99745.39
2023-04-03T02:20:10.948Z,99745.22
2023-04-03T02:22:40.488Z,99741.54
2023-04-03T02:25:09.671Z,99741.33
2023-04-03T02:27:43.857Z,99736.58
2023-04-03T02:30:12.604Z,99728.54
2023-04-03T02:32:43.512Z,99727.02
2023-04-03T02:35:12.403Z,99727.20
2023-04-03T02:37:41.702Z,99726.27
2023-04-03T02:40:10.528Z,99722.75
2023-04-03T02:42:39.541Z,99722.86
2023-04-03T02:45:08.332Z,99726.61
2023-04-03T02:47:36.806Z,99723.95
2023-04-03T02:50:05.571Z,99724.56
2023-04-03T02:52:34.455Z,99718.27
2023-04-03T02:55:03.663Z,99719.24
2023-04-03T02:57:32.616Z,99716.52
2023-04-03T03:00:00.828Z,99720.13
2023-04-03T03:02:30.028Z,99722.08
2023-04-03T03:04:58.367Z,99724.25
2023-04-03T03:07:28.157Z,99720.80
2023-04-03T03:09:56.588Z,99717.31
2023-04-03T03:12:25.881Z,99718.97
2023-04-03T03:14:55.492Z,99714.43
2023-04-03T03:17:24.652Z,99715.80
2023-04-03T03:19:52.952Z,99710.98
2023-04-03T03:22:22.591Z,99708.90
2023-04-03T03:24:51.304Z,99707.69
2023-04-03T03:27:20.382Z,99708.52
2023-04-03T03:29:48.982Z,99706.36
2023-04-03T03:32:17.218Z,99703.00
2023-04-03T03:34:45.863Z,99703.08
2023-04-03T03:37:14.006Z,99701.27
2023-04-03T03:39:42.704Z,99698.06
2023-04-03T03:42:11.032Z,99698.16
2023-04-03T03:44:39.356Z,99695.98
2023-04-03T03:47:08.173Z,99695.42
2023-04-03T03:49:36.744Z,99697.83
2023-04-03T03:52:05.052Z,99696.84
2023-04-03T03:54:33.228Z,99693.38
2023-04-03T03:57:02.051Z,99691.45
2023-04-03T03:59:32.487Z,99692.55
2023-04-03T04:02:02.555Z,99692.99
2023-04-03T04:04:30.915Z,99695.71
2023-04-03T04:07:01.155Z,99692.91
2023-04-03T04:09:29.831Z,99691.02
2023-04-03T04:11:58.023Z,99688.98
2023-04-03T04:14:29.848Z,99685.20
2023-04-03T04:16:58.535Z,99693.13
2023-04-03T04:19:28.092Z,99688.05
2023-04-03T04:21:56.432Z,99686.77
2023-04-03T04:24:25.646Z,99689.89
2023-04-03T04:26:54.841Z,99686.05
2023-04-03T04:29:24.177Z,99687.25
2023-04-03T04:31:52.795Z,99685.69
2023-04-03T04:34:22.713Z,99681.25
2023-04-03T04:36:51.917Z,99681.55
2023-04-03T04:39:21.024Z,99676.42
2023-04-03T04:41:49.256Z,99678.86
2023-04-03T04:44:18.518Z,99677.14
2023-04-03T04:46:47.313Z,99677.86
2023-04-03T04:49:15.723Z,99679.88
2023-04-03T04:51:51.608Z,99677.43
2023-04-03T04:54:23.654Z,99676.59
2023-04-03T04:56:56.555Z,99673.29
2023-04-03T04:59:24.928Z,99671.91
2023-04-03T05:01:54.125Z,99672.33
2023-04-03T05:04:24.426Z,99667.15
2023-04-03T05:06:56.651Z,99669.50
2023-04-03T05:09:27.169Z,99668.47
2023-04-03T05:11:57.466Z,99668.98
2023-04-03T05:14:28.372Z,99666.34
2023-04-03T05:16:58.854Z,99672.16
2023-04-03T05:19:29.715Z,99665.43
2023-04-03T05:21:59.075Z,99666.59
2023-04-03T05:24:28.252Z,99665.40
2023-04-03T05:26:56.712Z,99664.75
2023-04-03T05:29:26.015Z,99663.41
2023-04-03T05:31:54.760Z,99665.11
2023-04-03T05:34:23.091Z,99661.32
2023-04-03T05:36:52.401Z,99665.48
2023-04-03T05:39:20.863Z,99665.16
2023-04-03T05:41:49.878Z,99665.13
2023-04-03T05:44:19.642Z,99664.42
2023-04-03T05:46:49.655Z,99670.23
2023-04-03T05:49:20.767Z,99670.20
2023-04-03T05:51:49.593Z,99670.88
2023-04-03T05:54:24.780Z,99671.64
2023-04-03T05:56:54.802Z,99673.48
2023-04-03T05:59:23.592Z,99677.89
2023-04-03T06:01:55.344Z,99676.98
2023-04-03T06:04:25.005Z,99678.02
2023-04-03T06:06:55.341Z,99677.16
2023-04-03T06:09:27.440Z,99678.30
2023-04-03T06:11:55.786Z,99678.89
2023-04-03T06:14:26.934Z,99679.84
2023-04-03T06:17:01.235Z,99677.33
2023-04-03T06:19:30.261Z,99677.33
2023-04-03T06:21:59.314Z,99680.51
2023-04-03T06:24:30.299Z,99678.83
2023-04-03T06:26:58.677Z,99676.67
2023-04-03T06:29:27.816Z,99678.98
2023-04-03T06:31:56.011Z,99677.85
2023-04-03T06:34:24.310Z,99679.48
2023-04-03T06:36:53.776Z,99679.77
2023-04-03T06:39:23.728Z,99682.26
2023-04-03T06:41:52.234Z,99683.55
2023-04-03T06:44:25.838Z,99686.90
2023-04-03T06:46:55.529Z,99684.63
2023-04-03T06:49:27.675Z,99683.13
2023-04-03T06:51:57.473Z,99686.64
2023-04-03T06:54:26.331Z,99686.73
2023-04-03T06:56:55.495Z,99689.70
2023-04-03T06:59:23.875Z,99690.35
2023-04-03T07:01:52.249Z,99690.63
2023-04-03T07:04:21.753Z,99693.84
2023-04-03T07:06:50.458Z,99691.71
2023-04-03T07:09:18.840Z,99696.27
2023-04-03T07:11:47.213Z,99692.23
2023-04-03T07:14:15.716Z,99694.92
2023-04-03T07:16:44.056Z,99695.54
2023-04-03T07:19:14.335Z,99696.66
2023-04-03T07:21:44.586Z,99692.23
2023-04-03T07:24:16.004Z,99695.44
2023-04-03T07:26:46.490Z,99692.45
2023-04-03T07:29:15.889Z,99695.29
2023-04-03T07:31:45.972Z,99698.02
2023-04-03T07:34:14.430Z,99697.70
2023-04-03T07:36:42.732Z,99701.04
2023-04-03T07:39:12.351Z,99699.40
2023-04-03T07:41:44.245Z,99701.69
2023-04-03T07:44:12.610Z,99704.39
2023-04-03T07:46:42.033Z,99704.58
2023-04-03T07:49:10.473Z,99709.91
2023-04-03T07:51:39.090Z,99705.34
2023-04-03T07:54:08.612Z,99707.45
2023-04-03T07:56:37.346Z,99708.09
2023-04-03T07:59:09.018Z,99713.14
2023-04-03T08:01:37.345Z,99715.33
2023-04-03T08:04:07.987Z,99714.80
2023-04-03T08:06:45.706Z,99716.48
2023-04-03T08:09:17.127Z,99719.38
2023-04-03T08:11:45.733Z,99714.91
2023-04-03T08:14:19.622Z,99722.23
2023-04-03T08:16:48.558Z,99720.73
2023-04-03T08:19:26.270Z,99721.29
2023-04-03T08:21:56.491Z,99723.33
2023-04-03T08:24:29.623Z,99727.52
2023-04-03T08:26:58.136Z,99728.59
2023-04-03T08:29:26.391Z,99733.76
2023-04-03T08:31:55.857Z,99731.27
2023-04-03T08:34:26.415Z,99736.53
2023-04-03T08:36:56.883Z,99734.70
2023-04-03T08:39:25.242Z,99737.88
2023-04-03T08:41:54.308Z,99737.80
2023-04-03T08:44:29.762Z,99741.23
2023-04-03T08:47:27.367Z,99742.40
2023-04-03T08:50:01.034Z,99744.04
2023-04-03T08:52:38.561Z,99746.27
2023-04-03T08:55:26.573Z,99746.33
2023-04-03T08:58:10.980Z,99743.67
2023-04-03T09:00:52.200Z,99750.21
2023-04-03T09:03:22.802Z,99750.44
2023-04-03T09:05:55.342Z,99751.44
2023-04-03T09:09:15.782Z,99752.85
2023-04-03T09:12:02.880Z,99755.55
2023-04-03T09:14:33.188Z,99765.15
2023-04-03T09:17:04.866Z,99767.04
2023-04-03T09:19:33.956Z,99768.73
2023-04-03T09:22:17.472Z,99768.95
2023-04-03T09:24:47.819Z,99771.70
2023-04-03T09:27:16.377Z,99775.91
2023-04-03T09:29:47.089Z,99778.52
2023-04-03T09:32:26.817Z,99779.61
2023-04-03T09:34:59.709Z,99782.91
2023-04-03T09:37:41.224Z,99779.94
2023-04-03T09:40:32.174Z,99785.56
2023-04-03T09:43:02.038Z,99787.39
2023-04-03T09:45:33.260Z,99791.21
2023-04-03T09:48:16.257Z,99795.50
2023-04-03T09:50:49.993Z,99795.21
2023-04-03T09:53:27.967Z,99798.45
2023-04-03T09:55:59.101Z,99803.61
2023-04-03T09:58:46.758Z,99808.17
2023-04-03T10:01:27.652Z,99809.71
2023-04-03T10:04:17.451Z,99814.61
2023-04-03T10:06:51.078Z,99813.65
2023-04-03T10:09:23.716Z,99813.98
2023-04-03T10:12:08.028Z,99819.18
2023-04-03T10:14:41.827Z,99825.14
2023-04-03T10:17:22.552Z,99828.23
2023-04-03T10:20:10.373Z,99833.95
2023-04-03T10:23:24.722Z,99838.25
2023-04-03T10:26:18.714Z,99843.91
2023-04-03T10:28:57.871Z,99852.38
2023-04-03T10:31:46.439Z,99856.40
2023-04-03T10:34:34.878Z,99857.33
2023-04-03T10:37:21.306Z,99864.46
2023-04-03T10:40:12.170Z,99862.62
2023-04-03T10:42:47.810Z,99872.90
2023-04-03T10:45:49.911Z,99873.41
2023-04-03T10:48:44.318Z,99878.61
2023-04-03T10:51:12.489Z,99881.48
2023-04-03T10:53:51.475Z,99882.18
2023-04-03T10:57:04.547Z,99887.41
2023-04-03T11:00:05.505Z,99888.48
2023-04-03T11:02:38.795Z,99889.67
2023-04-03T11:05:19.215Z,99889.03
2023-04-03T11:07:50.171Z,99892.91
2023-04-03T11:10:43.573Z,99895.63
2023-04-03T11:13:11.968Z,99898.27
2023-04-03T11:15:42.419Z,99904.06
2023-04-03T11:18:14.871Z,99906.15
2023-04-03T11:20:49.469Z,99908.65
2023-04-03T11:23:22.342Z,99911.72
2023-04-03T11:25:53.648Z,99908.09
2023-04-03T11:28:23.536Z,99913.43
2023-04-03T11:31:10.732Z,99918.39
2023-04-03T11:33:49.625Z,99919.52
2023-04-03T11:36:53.913Z,99919.95
2023-04-03T11:39:30.568Z,99921.02
2023-04-03T11:42:27.739Z,99925.55
2023-04-03T11:45:28.054Z,99929.20
2023-04-03T11:48:00.990Z,99934.66
2023-04-03T11:50:35.544Z,99934.96
2023-04-03T11:53:07.627Z,99935.77
2023-04-03T11:55:37.077Z,99936.03
2023-04-03T11:58:25.753Z,99940.61
2023-04-03T12:01:03.636Z,99943.61
2023-04-03T12:03:43.670Z,99944.67
2023-04-03T12:06:17.953Z,99949.17
2023-04-03T12:08:54.808Z,99948.09
2023-04-03T12:11:27.575Z,99952.36
2023-04-03T12:13:56.579Z,99954.91
2023-04-03T12:16:37.101Z,99959.38
2023-04-03T12:19:15.873Z,99963.73
2023-04-03T12:21:50.236Z,99966.33
2023-04-03T12:24:18.545Z,99966.02
2023-04-03T12:27:01.389Z,99969.52
2023-04-03T12:29:43.989Z,99973.78
2023-04-03T12:32:38.767Z,99978.09
2023-04-03T12:35:23.153Z,99977.80
2023-04-03T12:38:22.182Z,99985.38
2023-04-03T12:40:58.288Z,99986.93
2023-04-03T12:43:33.008Z,99988.23
2023-04-03T12:46:13.291Z,99993.71
2023-04-03T12:48:53.113Z,99994.38
2023-04-03T12:51:38.417Z,99998.98
2023-04-03T12:54:36.575Z,99993.91
2023-04-03T12:57:17.961Z,100001.69
2023-04-03T12:59:47.864Z,100004.63
2023-04-03T13:02:21.547Z,100010.62
2023-04-03T13:04:54.756Z,100008.05
2023-04-03T13:07:32.786Z,100012.52
2023-04-03T13:10:08.841Z,100011.10
2023-04-03T13:12:50.972Z,100014.77
2023-04-03T13:15:31.224Z,100018.53
2023-04-03T13:18:03.772Z,100022.13
2023-04-03T13:20:36.926Z,100025.79
2023-04-03T13:23:11.642Z,100029.80
2023-04-03T13:25:42.704Z,100033.16
2023-04-03T13:28:14.431Z,100035.43
2023-04-03T13:31:06.176Z,100041.70
2023-04-03T13:33:39.069Z,100045.35
2023-04-03T13:36:12.294Z,100050.70
2023-04-03T13:38:40.687Z,100050.17
2023-04-03T13:41:34.063Z,100055.18
2023-04-03T13:44:17.682Z,100059.48
2023-04-03T13:46:45.977Z,100065.96
2023-04-03T13:49:22.363Z,100071.08
2023-04-03T13:52:00.574Z,100071.02
2023-04-03T13:54:38.502Z,100075.66
2023-04-03T13:59:39.244Z,100083.72
2023-04-03T14:02:20.281Z,100087.73
2023-04-03T14:04:54.290Z,100088.67
2023-04-03T14:07:23.409Z,100092.41
2023-04-03T14:09:54.769Z,100096.33
2023-04-03T14:12:38.387Z,100099.00
2023-04-03T14:15:25.407Z,100098.02
2023-04-03T14:17:54.137Z,100107.27
2023-04-03T14:20:26.869Z,100110.96
2023-04-03T14:22:55.186Z,100114.47
2023-04-03T14:25:28.743Z,100118.69
2023-04-03T14:27:57.312Z,100120.05
2023-04-03T14:30:31.451Z,100116.26
2023-04-03T14:33:00.414Z,100116.00
2023-04-03T14:35:29.441Z,100119.54
2023-04-03T14:37:58.604Z,100122.02
2023-04-03T14:40:27.811Z,100123.56
2023-04-03T14:42:59.746Z,100122.83
2023-04-03T14:45:28.799Z,100128.73
2023-04-03T14:47:59.877Z,100126.47
2023-04-03T14:50:29.968Z,100128.88
2023-04-03T14:53:02.176Z,100132.51
2023-04-03T14:55:31.574Z,100138.13
2023-04-03T14:58:03.241Z,100134.26
2023-04-03T15:00:39.412Z,100140.36
2023-04-03T15:03:26.638Z,100143.94
2023-04-03T15:05:58.896Z,100145.57
2023-04-03T15:08:30.397Z,100149.67
2023-04-03T15:10:59.440Z,100156.80
2023-04-03T15:13:28.515Z,100158.27
2023-04-03T15:16:01.025Z,100163.98
2023-04-03T15:18:38.908Z,100165.80
2023-04-03T15:21:07.462Z,100170.23
2023-04-03T15:23:38.072Z,100177.67
2023-04-03T15:26:10.095Z,100182.14
2023-04-03T15:28:43.067Z,100189.27
2023-04-03T15:31:12.033Z,100192.73
2023-04-03T15:33:41.660Z,100196.88
2023-04-03T15:36:29.152Z,100199.73
2023-04-03T15:38:59.089Z,100204.39
2023-04-03T15:41:28.583Z,100205.20
2023-04-03T15:43:59.959Z,100208.27
2023-04-03T15:46:31.017Z,100204.84
2023-04-03T15:48:59.505Z,100207.91
2023-04-03T15:51:30.857Z,100211.13
2023-04-03T15:53:59.368Z,100216.11
2023-04-03T15:56:28.287Z,100221.42
2023-04-03T15:58:56.631Z,100223.79
2023-04-03T16:01:28.313Z,100226.41
2023-04-03T16:03:57.411Z,100230.70
2023-04-03T16:06:25.934Z,100233.35
2023-04-03T16:08:58.342Z,100237.03
2023-04-03T16:11:27.278Z,100240.61
2023-04-03T16:14:00.567Z,100241.98
2023-04-03T16:16:29.123Z,100245.17
2023-04-03T16:18:57.586Z,100248.71
2023-04-03T16:21:26.025Z,100254.34
2023-04-03T16:23:54.576Z,100250.95
2023-04-03T16:26:24.528Z,100252.77
2023-04-03T16:28:54.507Z,100255.35
2023-04-03T16:31:23.953Z,100260.29
2023-04-03T16:33:53.659Z,100265.40
2023-04-03T16:36:22.371Z,100268.80
2023-04-03T16:38:51.365Z,100272.84
2023-04-03T16:41:23.000Z,100278.30
2023-04-03T16:43:51.803Z,100282.48
2023-04-03T16:46:21.739Z,100292.34
2023-04-03T16:48:50.204Z,100298.04
2023-04-03T16:51:18.428Z,100300.13
2023-04-03T16:53:46.907Z,100304.94
2023-04-03T16:56:16.566Z,100305.37
2023-04-03T16:58:45.537Z,100309.53
2023-04-03T17:01:18.687Z,100311.12
2023-04-03T17:03:50.073Z,100315.35
2023-04-03T17:06:20.011Z,100318.52
2023-04-03T17:08:49.204Z,100324.61
2023-04-03T17:11:32.898Z,100328.81
2023-04-03T17:14:14.113Z,100329.92
2023-04-03T17:16:51.209Z,100335.69
2023-04-03T17:19:19.623Z,100338.06
2023-04-03T17:22:49.321Z,100338.06
2023-04-03T17:25:11.930Z,100342.70
2023-04-03T17:27:43.966Z,100348.08
2023-04-03T17:30:13.271Z,100347.85
2023-04-03T17:32:46.226Z,100349.80
2023-04-03T17:35:14.553Z,100351.05
2023-04-03T17:37:42.939Z,100353.27
2023-04-03T17:40:14.571Z,100357.59
2023-04-03T17:42:46.344Z,100358.63
2023-04-03T17:45:14.866Z,100362.16
2023-04-03T17:47:43.651Z,100366.79
2023-04-03T17:50:16.539Z,100372.21
2023-04-03T17:52:48.140Z,100376.78
2023-04-03T17:55:17.850Z,100379.09
2023-04-03T17:58:36.348Z,100384.30
2023-04-03T18:01:20.617Z,100386.44
2023-04-03T18:03:56.827Z,100387.36
2023-04-03T18:06:33.985Z,100388.07
2023-04-03T18:09:55.892Z,100388.13
2023-04-03T18:12:24.305Z,100387.52
2023-04-03T18:15:00.761Z,100389.83
2023-04-03T18:17:33.778Z,100394.40
2023-04-03T18:20:11.933Z,100394.92
2023-04-03T18:22:40.914Z,100399.07
2023-04-03T18:25:11.374Z,100404.64
2023-04-03T18:27:54.327Z,100406.83
2023-04-03T18:30:31.111Z,100409.42
2023-04-03T18:33:03.917Z,100406.50
2023-04-03T18:35:32.883Z,100409.59
2023-04-03T18:38:04.866Z,100411.13
2023-04-03T18:40:33.381Z,100413.78
2023-04-03T18:43:01.860Z,100416.34
2023-04-03T18:45:33.646Z,100417.05
2023-04-03T18:48:05.493Z,100413.94
2023-04-03T18:50:38.822Z,100420.45
2023-04-03T18:53:07.242Z,100422.52
2023-04-03T18:55:35.990Z,100427.56
2023-04-03T18:58:04.823Z,100429.36
2023-04-03T19:00:33.385Z,100432.67
2023-04-03T19:03:18.285Z,100433.47
2023-04-03T19:05:49.501Z,100440.30
2023-04-03T19:08:19.885Z,100445.29
2023-04-03T19:10:48.322Z,100449.04
2023-04-03T19:13:20.108Z,100455.77
2023-04-03T19:15:52.238Z,100456.13
2023-04-03T19:18:22.241Z,100457.48
2023-04-03T19:21:04.682Z,100455.03
2023-04-03T19:23:32.943Z,100457.45
2023-04-03T19:26:05.326Z,100458.48
2023-04-03T19:28:44.192Z,100445.83
2023-04-03T19:31:16.754Z,100446.63
2023-04-03T19:33:48.909Z,100450.66
2023-04-03T19:36:25.288Z,100448.73
2023-04-03T19:38:54.259Z,100457.00
2023-04-03T19:41:23.773Z,100463.84
2023-04-03T19:44:01.188Z,100467.99
2023-04-03T19:46:33.391Z,100467.91
2023-04-03T19:49:02.647Z,100465.17
2023-04-03T19:51:30.847Z,100468.49
2023-04-03T19:53:59.123Z,100466.14
2023-04-03T19:56:27.650Z,100469.09
2023-04-03T19:58:57.228Z,100475.09
2023-04-03T20:01:27.164Z,100472.73
2023-04-03T20:03:56.622Z,100476.64
2023-04-03T20:06:25.942Z,100478.81
2023-04-03T20:08:54.877Z,100477.58
2023-04-03T20:11:26.167Z,100474.38
2023-04-03T20:13:55.440Z,100475.11
2023-04-03T20:16:25.979Z,100472.35
2023-04-03T20:18:57.634Z,100475.84
2023-04-03T20:21:33.379Z,100478.77
2023-04-03T20:24:05.755Z,100482.13
2023-04-03T20:26:42.198Z,100485.50
2023-04-03T20:29:11.682Z,100485.98
2023-04-03T20:31:40.684Z,100484.13
2023-04-03T20:34:09.553Z,100490.02
2023-04-03T20:36:40.778Z,100495.59
2023-04-03T20:39:09.317Z,100497.61
2023-04-03T20:41:38.634Z,100497.48
2023-04-03T20:44:07.314Z,100500.92
2023-04-03T20:46:51.484Z,100499.38
2023-04-03T20:49:22.937Z,100502.08
2023-04-03T20:51:52.151Z,100497.27
2023-04-03T20:54:21.285Z,100497.39
2023-04-03T20:56:50.016Z,100503.92
2023-04-03T20:59:20.752Z,100512.79
2023-04-03T21:01:50.102Z,100506.48
2023-04-03T21:04:21.471Z,100503.02
2023-04-03T21:07:28.229Z,100501.36
2023-04-03T21:10:34.698Z,100503.27
2023-04-03T21:13:21.616Z,100502.52
2023-04-03T21:16:00.226Z,100506.60
2023-04-03T21:18:34.664Z,100510.36
2023-04-03T21:21:03.174Z,100507.23
2023-04-03T21:23:31.930Z,100514.33
2023-04-03T21:26:00.212Z,100522.84
2023-04-03T21:28:28.510Z,100524.40
2023-04-03T21:30:56.741Z,100522.09
2023-04-03T21:33:27.445Z,100521.65
2023-04-03T21:35:58.719Z,100520.21
2023-04-03T21:38:27.620Z,100527.25
2023-04-03T21:40:58.835Z,100533.70
2023-04-03T21:43:27.310Z,100540.02
2023-04-03T21:45:57.100Z,100538.77
2023-04-03T21:48:28.817Z,100545.68
2023-04-03T21:51:06.955Z,100549.32
2023-04-03T21:53:36.651Z,100549.48
2023-04-03T21:56:05.142Z,100550.28
2023-04-03T21:58:34.883Z,100550.95
2023-04-03T22:01:11.206Z,100553.29
2023-04-03T22:03:41.670Z,100553.73
2023-04-03T22:06:10.762Z,100556.88
2023-04-03T22:08:42.682Z,100557.21
2023-04-03T22:11:13.609Z,100553.52
2023-04-03T22:13:42.163Z,100559.02
2023-04-03T22:16:13.646Z,100562.48
2023-04-03T22:18:42.169Z,100563.72
2023-04-03T22:21:10.705Z,100566.41
2023-04-03T22:23:39.862Z,100563.73
2023-04-03T22:26:09.496Z,100562.31
2023-04-03T22:28:43.509Z,100562.23
2023-04-03T22:31:14.382Z,100556.40
2023-04-03T22:33:43.567Z,100557.17
2023-04-03T22:36:13.295Z,100560.06
2023-04-03T22:38:45.786Z,100562.48
2023-04-03T22:41:14.047Z,100565.48
2023-04-03T22:43:42.770Z,100565.81
2023-04-03T22:46:17.679Z,100570.48
2023-04-03T22:48:45.959Z,100570.23
2023-04-03T22:51:14.092Z,100569.71
2023-04-03T22:53:44.425Z,100576.80
2023-04-03T22:56:13.862Z,100573.91
2023-04-03T22:58:43.307Z,100575.89
2023-04-03T23:01:12.790Z,100573.69
2023-04-03T23:03:42.617Z,100574.13
2023-04-03T23:06:11.016Z,100580.00
2023-04-03T23:08:42.125Z,100580.58
2023-04-03T23:11:12.262Z,100582.84
2023-04-03T23:13:43.781Z,100579.48
2023-04-03T23:16:12.532Z,100580.64
2023-04-03T23:18:41.947Z,100582.27
2023-04-03T23:21:10.177Z,100582.66
2023-04-03T23:23:38.855Z,100587.36
2023-04-03T23:26:09.218Z,100593.00
2023-04-03T23:28:39.326Z,100594.44
2023-04-03T23:31:08.475Z,100595.45
2023-04-03T23:33:37.451Z,100592.98
2023-04-03T23:36:08.960Z,100594.87
2023-04-03T23:38:42.408Z,100600.77
2023-04-03T23:41:11.754Z,100602.32
2023-04-03T23:43:41.636Z,100604.50
2023-04-03T23:46:10.168Z,100602.73
2023-04-03T23:48:38.586Z,100607.75
2023-04-03T23:51:07.126Z,100605.50
2023-04-03T23:53:35.639Z,100604.65
2023-04-03T23:56:09.797Z,100605.42
2023-04-03T23:58:38.273Z,100608.15
